createdAt,value
2023-05-19T00:01:33.415Z,0.30
2023-05-19T00:04:03.043Z,0.30
2023-05-19T00:06:33.428Z,0.20
2023-05-19T00:09:04.017Z,0.30
2023-05-19T00:11:30.773Z,0.20
2023-05-19T00:13:58.340Z,0.28
2023-05-19T00:16:25.595Z,0.20
2023-05-19T00:18:53.326Z,0.30
2023-05-19T00:21:20.021Z,0.20
2023-05-19T00:23:46.720Z,0.20
2023-05-19T00:26:13.145Z,0.30
2023-05-19T00:28:39.516Z,0.40
2023-05-19T00:31:06.072Z,0.50
2023-05-19T00:33:33.826Z,0.30
2023-05-19T00:36:03.031Z,0.60
2023-05-19T00:38:31.140Z,0.40
2023-05-19T00:40:57.609Z,0.30
2023-05-19T00:43:23.961Z,0.30
2023-05-19T00:45:50.942Z,0.30
2023-05-19T00:48:17.373Z,0.65
2023-05-19T00:50:44.240Z,0.40
2023-05-19T00:53:10.826Z,0.30
2023-05-19T00:55:37.647Z,0.32
2023-05-19T00:58:04.590Z,0.30
2023-05-19T01:00:31.742Z,0.30
2023-05-19T01:02:58.471Z,0.28
2023-05-19T01:05:24.932Z,0.30
2023-05-19T01:07:53.540Z,0.30
2023-05-19T01:10:20.645Z,0.30
2023-05-19T01:12:47.263Z,0.40
2023-05-19T01:15:13.952Z,0.40
2023-05-19T01:17:45.824Z,0.50
2023-05-19T01:20:12.372Z,0.30
2023-05-19T01:22:38.675Z,0.38
2023-05-19T01:25:20.442Z,0.25
2023-05-19T01:28:05.548Z,0.25
2023-05-19T01:30:40.432Z,0.30
2023-05-19T01:33:08.445Z,0.30
2023-05-19T01:35:35.553Z,0.30
2023-05-19T01:38:02.462Z,0.32
2023-05-19T01:40:30.110Z,0.22
2023-05-19T01:42:58.484Z,0.40
2023-05-19T01:45:25.978Z,0.30
2023-05-19T01:47:54.217Z,0.32
2023-05-19T01:50:20.625Z,0.25
2023-05-19T01:52:47.111Z,0.30
2023-05-19T01:55:13.572Z,0.30
2023-05-19T01:57:46.832Z,0.30
2023-05-19T02:00:13.382Z,0.20
2023-05-19T02:02:48.962Z,0.20
2023-05-19T02:05:31.123Z,0.40
2023-05-19T02:08:33.092Z,0.20
2023-05-19T02:11:05.889Z,0.20
2023-05-19T02:13:36.633Z,0.20
2023-05-19T02:16:07.576Z,0.20
2023-05-19T02:18:35.328Z,0.20
2023-05-19T02:21:02.070Z,0.20
2023-05-19T02:23:28.896Z,0.17
2023-05-19T02:25:55.314Z,0.13
2023-05-19T02:28:21.699Z,0.15
2023-05-19T02:30:48.028Z,0.20
2023-05-19T02:33:14.461Z,0.20
2023-05-19T02:35:41.009Z,0.30
2023-05-19T02:38:07.388Z,0.20
2023-05-19T02:40:33.936Z,0.20
2023-05-19T02:43:00.491Z,0.30
2023-05-19T02:45:28.639Z,0.30
2023-05-19T02:47:55.315Z,0.50
2023-05-19T02:50:22.554Z,0.30
2023-05-19T02:52:48.945Z,0.50
2023-05-19T02:55:17.160Z,0.30
2023-05-19T02:57:43.684Z,0.20
2023-05-19T03:00:10.276Z,0.20
2023-05-19T03:02:36.706Z,0.20
2023-05-19T03:05:03.720Z,0.43
2023-05-19T03:07:30.193Z,0.20
2023-05-19T03:09:56.558Z,0.40
2023-05-19T03:12:22.954Z,0.20
2023-05-19T03:14:49.494Z,0.28
2023-05-19T03:17:16.077Z,0.43
2023-05-19T03:19:42.494Z,0.30
2023-05-19T03:22:08.913Z,0.25
2023-05-19T03:24:36.239Z,0.20
2023-05-19T03:27:02.844Z,0.30
2023-05-19T03:29:29.223Z,0.30
2023-05-19T03:31:55.637Z,0.25
2023-05-19T03:34:22.509Z,0.40
2023-05-19T03:36:50.298Z,0.52
2023-05-19T03:39:17.271Z,0.55
2023-05-19T03:41:43.820Z,0.38
2023-05-19T03:44:10.351Z,0.50
2023-05-19T03:46:36.710Z,0.30
2023-05-19T03:49:03.039Z,0.30
2023-05-19T03:51:30.037Z,0.30
2023-05-19T03:53:57.157Z,0.20
2023-05-19T03:56:24.346Z,0.30
2023-05-19T03:58:50.733Z,0.30
2023-05-19T04:01:17.208Z,0.30
2023-05-19T04:03:43.670Z,0.30
2023-05-19T04:06:10.083Z,0.28
2023-05-19T04:08:36.550Z,0.25
2023-05-19T04:11:02.952Z,0.30
2023-05-19T04:13:29.298Z,0.20
2023-05-19T04:15:56.069Z,0.20
2023-05-19T04:18:22.592Z,0.22
2023-05-19T04:20:49.084Z,0.20
2023-05-19T04:23:15.687Z,0.20
2023-05-19T04:25:42.339Z,0.10
2023-05-19T04:28:08.789Z,0.20
2023-05-19T04:30:36.836Z,0.20
2023-05-19T04:33:04.861Z,0.20
2023-05-19T04:35:31.451Z,0.20
2023-05-19T04:37:58.102Z,0.20
2023-05-19T04:40:24.431Z,0.10
2023-05-19T04:42:52.252Z,0.20
2023-05-19T04:45:18.735Z,0.10
2023-05-19T04:47:46.964Z,0.10
2023-05-19T04:50:14.302Z,0.10
2023-05-19T04:52:42.424Z,0.10
2023-05-19T04:55:11.241Z,0.10
2023-05-19T04:57:37.754Z,0.10
2023-05-19T05:00:08.324Z,0.20
2023-05-19T05:02:35.018Z,0.10
2023-05-19T05:05:01.384Z,0.10
2023-05-19T05:07:28.553Z,0.10
2023-05-19T05:09:56.194Z,0.20
2023-05-19T05:12:22.760Z,0.20
2023-05-19T05:14:49.239Z,0.13
2023-05-19T05:17:16.183Z,0.20
2023-05-19T05:19:42.632Z,0.40
2023-05-19T05:22:09.218Z,0.20
2023-05-19T05:24:35.956Z,0.20
2023-05-19T05:27:02.387Z,0.20
2023-05-19T05:29:28.759Z,0.20
2023-05-19T05:31:55.128Z,0.20
2023-05-19T05:34:21.508Z,0.25
2023-05-19T05:36:48.031Z,0.20
2023-05-19T05:39:14.422Z,0.30
2023-05-19T05:41:40.832Z,0.20
2023-05-19T05:44:07.499Z,0.10
2023-05-19T05:46:33.989Z,0.40
2023-05-19T05:49:00.571Z,0.20
2023-05-19T05:51:27.082Z,0.30
2023-05-19T05:53:54.689Z,0.47
2023-05-19T05:56:21.690Z,0.20
2023-05-19T05:58:49.463Z,0.43
2023-05-19T06:01:16.812Z,0.40
2023-05-19T06:03:46.481Z,0.40
2023-05-19T06:06:13.563Z,0.40
2023-05-19T06:08:39.985Z,0.60
2023-05-19T06:11:09.277Z,0.40
2023-05-19T06:13:36.077Z,0.50
2023-05-19T06:16:02.549Z,0.63
2023-05-19T06:18:29.195Z,0.70
2023-05-19T06:20:56.086Z,0.90
2023-05-19T06:23:22.511Z,0.90
2023-05-19T06:25:48.916Z,0.60
2023-05-19T06:28:15.514Z,0.65
2023-05-19T06:30:41.854Z,0.70
2023-05-19T06:33:08.358Z,0.60
2023-05-19T06:35:34.793Z,1.13
2023-05-19T06:38:01.271Z,0.82
2023-05-19T06:40:27.665Z,0.98
2023-05-19T06:42:54.061Z,0.98
2023-05-19T06:45:22.425Z,1.00
2023-05-19T06:47:49.056Z,1.00
2023-05-19T06:50:15.674Z,1.00
2023-05-19T06:52:42.593Z,0.70
2023-05-19T06:55:09.054Z,0.75
2023-05-19T06:57:36.216Z,0.50
2023-05-19T07:00:02.814Z,1.00
2023-05-19T07:02:29.377Z,0.90
2023-05-19T07:04:57.442Z,0.75
2023-05-19T07:07:23.865Z,0.70
2023-05-19T07:09:50.303Z,0.70
2023-05-19T07:12:16.650Z,1.05
2023-05-19T07:14:43.033Z,1.02
2023-05-19T07:17:09.503Z,0.60
2023-05-19T07:19:35.921Z,0.68
2023-05-19T07:22:02.403Z,1.05
2023-05-19T07:24:28.904Z,1.02
2023-05-19T07:26:55.494Z,1.00
2023-05-19T07:29:21.973Z,0.80
2023-05-19T07:31:48.446Z,0.90
2023-05-19T07:34:14.807Z,1.88
2023-05-19T07:36:41.573Z,0.90
2023-05-19T07:39:08.032Z,0.60
2023-05-19T07:41:36.393Z,0.80
2023-05-19T07:44:07.488Z,0.60
2023-05-19T07:46:37.960Z,0.70
2023-05-19T07:49:04.809Z,1.08
2023-05-19T07:51:31.799Z,0.77
2023-05-19T07:53:58.579Z,0.80
2023-05-19T07:56:24.976Z,0.52
2023-05-19T07:58:51.840Z,0.85
2023-05-19T08:01:18.198Z,0.73
2023-05-19T08:03:44.626Z,0.80
2023-05-19T08:06:11.254Z,0.60
2023-05-19T08:08:37.726Z,0.60
2023-05-19T08:11:04.578Z,1.38
2023-05-19T08:13:31.138Z,1.00
2023-05-19T08:15:59.864Z,0.70
2023-05-19T08:18:26.744Z,0.93
2023-05-19T08:20:53.152Z,0.60
2023-05-19T08:23:19.785Z,0.40
2023-05-19T08:25:46.131Z,0.60
2023-05-19T08:28:12.518Z,1.05
2023-05-19T08:30:39.017Z,0.88
2023-05-19T08:33:05.536Z,1.27
2023-05-19T08:35:31.983Z,1.40
2023-05-19T08:37:58.336Z,0.80
2023-05-19T08:40:27.206Z,0.50
2023-05-19T08:42:54.203Z,0.55
2023-05-19T08:45:20.699Z,0.80
2023-05-19T08:47:47.466Z,0.77
2023-05-19T08:50:16.929Z,0.90
2023-05-19T08:52:49.547Z,0.80
2023-05-19T08:55:21.773Z,0.47
2023-05-19T08:57:48.900Z,1.05
2023-05-19T09:00:16.450Z,1.20
2023-05-19T09:02:50.690Z,0.70
2023-05-19T09:05:27.857Z,0.65
2023-05-19T09:07:54.998Z,0.68
2023-05-19T09:10:21.499Z,0.55
2023-05-19T09:12:48.898Z,0.70
2023-05-19T09:15:19.231Z,0.63
2023-05-19T09:17:47.991Z,0.57
2023-05-19T09:20:16.843Z,0.68
2023-05-19T09:22:45.189Z,0.50
2023-05-19T09:25:18.310Z,0.80
2023-05-19T09:27:46.192Z,0.47
2023-05-19T09:30:12.942Z,0.60
2023-05-19T09:32:39.470Z,0.50
2023-05-19T09:35:06.146Z,1.05
2023-05-19T09:37:32.547Z,0.80
2023-05-19T09:39:59.449Z,0.60
2023-05-19T09:42:30.113Z,1.15
2023-05-19T09:45:03.526Z,0.90
2023-05-19T09:47:39.355Z,1.30
2023-05-19T09:50:08.481Z,0.60
2023-05-19T09:52:35.805Z,0.95
2023-05-19T09:55:04.203Z,0.57
2023-05-19T09:57:34.321Z,1.00
2023-05-19T10:00:00.882Z,0.50
2023-05-19T10:02:28.088Z,0.70
2023-05-19T10:04:55.084Z,0.70
2023-05-19T10:07:24.166Z,0.68
2023-05-19T10:09:51.425Z,0.63
2023-05-19T10:12:18.071Z,0.40
2023-05-19T10:14:44.622Z,0.57
2023-05-19T10:17:12.003Z,0.70
2023-05-19T10:19:38.522Z,0.52
2023-05-19T10:22:05.008Z,0.70
2023-05-19T10:24:31.425Z,0.60
2023-05-19T10:27:03.530Z,1.00
2023-05-19T10:29:31.881Z,1.10
2023-05-19T10:32:01.101Z,1.02
2023-05-19T10:34:27.893Z,1.10
2023-05-19T10:37:16.953Z,0.80
2023-05-19T10:39:44.554Z,0.70
2023-05-19T10:42:19.569Z,0.60
2023-05-19T10:44:45.975Z,1.10
2023-05-19T10:47:12.786Z,0.82
2023-05-19T10:49:39.702Z,0.70
2023-05-19T10:52:19.229Z,0.77
2023-05-19T10:54:48.715Z,1.10
2023-05-19T10:57:19.685Z,1.10
2023-05-19T10:59:46.185Z,0.70
2023-05-19T11:02:31.565Z,1.08
2023-05-19T11:05:07.577Z,0.88
2023-05-19T11:07:34.103Z,0.90
2023-05-19T11:10:05.198Z,0.60
2023-05-19T11:12:39.457Z,0.50
2023-05-19T11:15:07.316Z,0.80
2023-05-19T11:17:35.099Z,0.70
2023-05-19T11:20:01.554Z,0.60
2023-05-19T11:22:28.227Z,0.85
2023-05-19T11:24:54.929Z,0.60
2023-05-19T11:27:22.955Z,1.08
2023-05-19T11:29:49.470Z,0.60
2023-05-19T11:32:16.838Z,0.60
2023-05-19T11:34:44.138Z,0.77
2023-05-19T11:37:11.399Z,0.90
2023-05-19T11:39:39.273Z,1.00
2023-05-19T11:42:05.691Z,0.80
2023-05-19T11:44:32.306Z,0.50
2023-05-19T11:46:59.242Z,0.50
2023-05-19T11:49:27.352Z,0.60
2023-05-19T11:51:54.282Z,0.77
2023-05-19T11:54:20.946Z,0.80
2023-05-19T11:56:47.591Z,0.55
2023-05-19T11:59:13.934Z,0.90
2023-05-19T12:01:40.306Z,0.50
2023-05-19T12:04:10.465Z,0.90
2023-05-19T12:06:40.033Z,0.50
2023-05-19T12:09:07.221Z,0.35
2023-05-19T12:11:34.420Z,0.68
2023-05-19T12:14:01.211Z,0.85
2023-05-19T12:16:34.669Z,0.85
2023-05-19T12:19:01.865Z,0.80
2023-05-19T12:21:34.222Z,0.82
2023-05-19T12:24:01.342Z,0.77
2023-05-19T12:26:27.778Z,0.82
2023-05-19T12:28:54.868Z,0.77
2023-05-19T12:31:23.413Z,0.88
2023-05-19T12:33:52.721Z,0.52
2023-05-19T12:36:19.158Z,0.50
2023-05-19T12:38:45.866Z,0.50
2023-05-19T12:41:14.951Z,0.40
2023-05-19T12:43:41.279Z,0.20
2023-05-19T12:46:11.565Z,0.30
2023-05-19T12:48:41.809Z,0.52
2023-05-19T12:51:08.286Z,0.80
2023-05-19T12:53:34.884Z,0.70
2023-05-19T12:56:01.259Z,0.60
2023-05-19T12:58:27.718Z,0.50
2023-05-19T13:00:58.568Z,0.50
2023-05-19T13:03:25.108Z,0.47
2023-05-19T13:05:51.690Z,0.32
2023-05-19T13:08:22.092Z,0.52
2023-05-19T13:10:49.640Z,0.60
2023-05-19T13:13:16.054Z,0.43
2023-05-19T13:15:44.451Z,0.68
2023-05-19T13:18:11.940Z,0.68
2023-05-19T13:20:39.534Z,0.52
2023-05-19T13:23:05.891Z,0.52
2023-05-19T13:25:33.875Z,0.50
2023-05-19T13:28:01.538Z,0.75
2023-05-19T13:30:28.307Z,0.88
2023-05-19T13:32:54.919Z,0.65
2023-05-19T13:35:21.431Z,0.52
2023-05-19T13:37:49.690Z,0.55
2023-05-19T13:40:17.051Z,0.60
2023-05-19T13:42:43.559Z,0.60
2023-05-19T13:45:10.117Z,0.55
2023-05-19T13:47:36.884Z,0.55
2023-05-19T13:50:04.609Z,0.50
2023-05-19T13:52:31.431Z,0.50
2023-05-19T13:54:57.894Z,0.70
2023-05-19T13:57:24.530Z,0.70
2023-05-19T14:00:01.573Z,0.70
2023-05-19T14:02:29.965Z,0.60
2023-05-19T14:04:56.781Z,0.50
2023-05-19T14:07:23.661Z,0.77
2023-05-19T14:09:51.255Z,0.80
2023-05-19T14:12:17.794Z,0.50
2023-05-19T14:14:44.163Z,0.60
2023-05-19T14:17:10.912Z,0.32
2023-05-19T14:19:37.350Z,0.38
2023-05-19T14:22:03.863Z,0.70
2023-05-19T14:24:30.624Z,0.70
2023-05-19T14:26:57.011Z,0.57
2023-05-19T14:29:23.396Z,0.55
2023-05-19T14:31:49.910Z,0.63
2023-05-19T14:34:17.964Z,0.47
2023-05-19T14:36:44.676Z,0.80
2023-05-19T14:39:12.389Z,0.52
2023-05-19T14:41:38.795Z,0.35
2023-05-19T14:44:05.604Z,0.43
2023-05-19T14:46:32.113Z,0.75
2023-05-19T14:48:58.583Z,0.60
2023-05-19T14:51:25.049Z,0.55
2023-05-19T14:53:51.423Z,1.00
2023-05-19T14:56:17.853Z,0.85
2023-05-19T14:58:44.359Z,0.60
2023-05-19T15:01:10.948Z,0.60
2023-05-19T15:03:37.368Z,0.57
2023-05-19T15:06:07.995Z,0.47
2023-05-19T15:08:34.508Z,0.73
2023-05-19T15:11:00.991Z,0.60
2023-05-19T15:13:27.688Z,0.57
2023-05-19T15:16:08.314Z,0.88
2023-05-19T15:18:41.730Z,0.85
2023-05-19T15:21:08.144Z,0.80
2023-05-19T15:23:34.648Z,0.80
2023-05-19T15:26:01.095Z,0.68
2023-05-19T15:28:27.468Z,1.00
2023-05-19T15:30:54.082Z,0.70
2023-05-19T15:33:20.528Z,0.73
2023-05-19T15:35:47.845Z,0.55
2023-05-19T15:38:14.264Z,0.70
2023-05-19T15:40:41.496Z,0.50
2023-05-19T15:43:07.949Z,0.88
2023-05-19T15:45:34.315Z,0.50
2023-05-19T15:48:01.585Z,0.70
2023-05-19T15:50:28.154Z,0.52
2023-05-19T15:52:54.610Z,0.80
2023-05-19T15:55:21.211Z,0.50
2023-05-19T15:57:47.698Z,0.55
2023-05-19T16:00:14.476Z,0.80
2023-05-19T16:02:40.921Z,0.95
2023-05-19T16:05:07.644Z,0.70
2023-05-19T16:07:34.082Z,0.60
2023-05-19T16:10:00.566Z,1.38
2023-05-19T16:12:27.945Z,0.70
2023-05-19T16:14:54.366Z,0.50
2023-05-19T16:17:20.722Z,0.70
2023-05-19T16:19:47.505Z,0.60
2023-05-19T16:22:13.839Z,0.60
2023-05-19T16:24:40.170Z,0.60
2023-05-19T16:27:06.635Z,0.50
2023-05-19T16:29:33.046Z,0.50
2023-05-19T16:31:59.473Z,0.63
2023-05-19T16:34:26.696Z,0.73
2023-05-19T16:36:54.312Z,1.02
2023-05-19T16:39:20.821Z,0.95
2023-05-19T16:41:47.227Z,1.10
2023-05-19T16:44:14.643Z,0.80
2023-05-19T16:46:41.201Z,0.57
2023-05-19T16:49:07.551Z,0.70
2023-05-19T16:51:33.948Z,0.70
2023-05-19T16:54:00.346Z,0.80
2023-05-19T16:56:26.730Z,0.60
2023-05-19T16:58:54.989Z,0.80
2023-05-19T17:01:21.618Z,0.73
2023-05-19T17:03:48.108Z,0.65
2023-05-19T17:06:14.513Z,0.43
2023-05-19T17:08:40.886Z,0.50
2023-05-19T17:11:07.304Z,0.65
2023-05-19T17:13:36.088Z,0.95
2023-05-19T17:16:02.852Z,0.63
2023-05-19T17:18:31.142Z,0.40
2023-05-19T17:20:59.261Z,0.32
2023-05-19T17:23:25.623Z,0.50
2023-05-19T17:25:53.927Z,0.68
2023-05-19T17:28:20.481Z,0.63
2023-05-19T17:30:46.959Z,0.40
2023-05-19T17:33:13.400Z,0.50
2023-05-19T17:35:41.214Z,0.65
2023-05-19T17:38:07.537Z,0.70
2023-05-19T17:40:34.206Z,0.60
2023-05-19T17:43:00.902Z,0.70
2023-05-19T17:45:27.312Z,0.60
2023-05-19T17:47:53.721Z,0.50
2023-05-19T17:50:20.192Z,0.43
2023-05-19T17:52:46.668Z,0.40
2023-05-19T17:55:13.452Z,0.40
2023-05-19T17:57:40.493Z,0.50
2023-05-19T18:00:07.578Z,0.60
2023-05-19T18:02:34.226Z,0.50
2023-05-19T18:05:00.998Z,0.45
2023-05-19T18:07:27.920Z,0.40
2023-05-19T18:09:55.619Z,0.50
2023-05-19T18:12:22.751Z,0.40
2023-05-19T18:14:49.747Z,0.40
2023-05-19T18:17:16.081Z,0.40
2023-05-19T18:19:42.459Z,1.02
2023-05-19T18:22:12.843Z,0.30
2023-05-19T18:24:39.252Z,0.40
2023-05-19T18:27:05.878Z,0.55
2023-05-19T18:29:33.828Z,0.47
2023-05-19T18:32:01.230Z,0.40
2023-05-19T18:34:27.754Z,0.60
2023-05-19T18:36:54.130Z,0.88
2023-05-19T18:39:21.040Z,0.60
2023-05-19T18:41:47.503Z,0.63
2023-05-19T18:44:13.934Z,0.52
2023-05-19T18:46:40.415Z,0.60
2023-05-19T18:49:06.891Z,0.60
2023-05-19T18:51:35.954Z,0.40
2023-05-19T18:54:02.345Z,0.50
2023-05-19T18:56:31.065Z,0.50
2023-05-19T18:58:57.582Z,0.32
2023-05-19T19:01:24.012Z,0.30
2023-05-19T19:03:50.602Z,0.30
2023-05-19T19:06:17.302Z,0.40
2023-05-19T19:08:43.982Z,0.52
2023-05-19T19:11:11.311Z,0.35
2023-05-19T19:13:38.283Z,0.40
2023-05-19T19:16:05.334Z,0.43
2023-05-19T19:18:31.770Z,0.50
2023-05-19T19:20:59.535Z,0.50
2023-05-19T19:23:25.990Z,0.50
2023-05-19T19:25:53.604Z,0.30
2023-05-19T19:28:20.066Z,0.45
2023-05-19T19:30:46.546Z,0.43
2023-05-19T19:33:12.987Z,0.52
2023-05-19T19:35:39.449Z,0.50
2023-05-19T19:38:05.935Z,0.40
2023-05-19T19:40:32.740Z,0.50
2023-05-19T19:42:59.390Z,0.40
2023-05-19T19:45:25.772Z,0.40
2023-05-19T19:47:53.037Z,0.40
2023-05-19T19:50:19.461Z,0.40
2023-05-19T19:52:45.898Z,0.30
2023-05-19T19:55:12.298Z,0.43
2023-05-19T19:57:38.696Z,0.20
2023-05-19T20:00:08.459Z,0.30
2023-05-19T20:02:36.015Z,0.40
2023-05-19T20:05:02.646Z,0.40
2023-05-19T20:07:29.125Z,0.30
2023-05-19T20:09:59.553Z,0.30
2023-05-19T20:12:26.105Z,0.30
2023-05-19T20:14:55.962Z,0.30
2023-05-19T20:17:22.328Z,0.50
2023-05-19T20:19:48.814Z,0.40
2023-05-19T20:22:15.368Z,0.40
2023-05-19T20:24:41.690Z,0.47
2023-05-19T20:27:08.162Z,0.35
2023-05-19T20:29:34.614Z,0.40
2023-05-19T20:32:00.978Z,0.35
2023-05-19T20:34:28.043Z,0.60
2023-05-19T20:36:54.466Z,0.30
2023-05-19T20:39:20.938Z,0.30
2023-05-19T20:41:47.284Z,0.40
2023-05-19T20:44:14.645Z,0.30
2023-05-19T20:46:41.222Z,0.25
2023-05-19T20:49:07.643Z,0.30
2023-05-19T20:51:34.026Z,0.25
2023-05-19T20:54:00.554Z,0.38
2023-05-19T20:56:26.961Z,0.30
2023-05-19T20:58:53.330Z,0.30
2023-05-19T21:01:19.855Z,0.25
2023-05-19T21:03:46.297Z,0.20
2023-05-19T21:06:12.640Z,0.30
2023-05-19T21:08:38.997Z,0.30
2023-05-19T21:11:05.413Z,0.30
2023-05-19T21:13:32.206Z,0.52
2023-05-19T21:15:58.678Z,0.22
2023-05-19T21:18:25.135Z,0.20
2023-05-19T21:20:51.491Z,0.20
2023-05-19T21:23:18.117Z,0.25
2023-05-19T21:25:45.385Z,0.30
2023-05-19T21:28:11.912Z,0.20
2023-05-19T21:30:38.388Z,0.20
2023-05-19T21:33:04.807Z,0.30
2023-05-19T21:35:31.375Z,0.30
2023-05-19T21:37:58.245Z,0.13
2023-05-19T21:40:25.852Z,0.20
2023-05-19T21:42:52.331Z,0.20
2023-05-19T21:45:18.930Z,0.10
2023-05-19T21:47:45.414Z,0.20
2023-05-19T21:50:15.659Z,0.20
2023-05-19T21:52:42.084Z,0.17
2023-05-19T21:55:09.209Z,0.22
2023-05-19T21:57:35.567Z,0.20
2023-05-19T22:00:01.979Z,0.30
2023-05-19T22:02:28.565Z,0.20
2023-05-19T22:04:54.957Z,0.20
2023-05-19T22:07:26.676Z,0.30
2023-05-19T22:09:53.545Z,0.40
2023-05-19T22:12:19.868Z,0.30
2023-05-19T22:14:46.250Z,0.20
2023-05-19T22:17:12.626Z,0.20
2023-05-19T22:19:38.999Z,0.20
2023-05-19T22:22:13.307Z,0.40
2023-05-19T22:24:40.390Z,0.30
2023-05-19T22:27:07.655Z,0.30
2023-05-19T22:29:34.056Z,0.20
2023-05-19T22:32:00.478Z,0.20
2023-05-19T22:34:26.857Z,0.43
2023-05-19T22:36:53.273Z,0.30
2023-05-19T22:39:19.963Z,0.30
2023-05-19T22:41:46.308Z,0.30
2023-05-19T22:44:16.132Z,0.30
2023-05-19T22:46:44.276Z,0.30
2023-05-19T22:49:10.965Z,0.20
2023-05-19T22:51:37.931Z,0.30
2023-05-19T22:54:04.281Z,0.40
2023-05-19T22:56:30.657Z,0.20
2023-05-19T22:58:57.008Z,0.20
2023-05-19T23:01:23.442Z,0.10
2023-05-19T23:03:50.029Z,0.10
2023-05-19T23:06:16.464Z,0.13
2023-05-19T23:08:44.739Z,0.20
2023-05-19T23:11:11.484Z,0.20
2023-05-19T23:13:37.821Z,0.20
2023-05-19T23:16:06.561Z,0.20
2023-05-19T23:18:33.058Z,0.20
2023-05-19T23:20:59.438Z,0.20
2023-05-19T23:23:27.544Z,0.20
2023-05-19T23:25:54.189Z,0.30
2023-05-19T23:28:20.645Z,0.20
2023-05-19T23:30:47.027Z,0.28
2023-05-19T23:33:13.465Z,0.30
2023-05-19T23:35:39.975Z,0.20
2023-05-19T23:38:06.404Z,0.20
2023-05-19T23:40:32.790Z,0.40
2023-05-19T23:42:59.267Z,0.30
2023-05-19T23:45:25.754Z,0.30
2023-05-19T23:47:52.183Z,0.30
2023-05-19T23:50:18.648Z,0.30
2023-05-19T23:52:45.178Z,0.30
2023-05-19T23:55:13.678Z,0.20
2023-05-19T23:57:40.044Z,0.10
